Time;durP1;ratioP1;P1;durP2;ratioP2;P2;SDS_P1;SDS_P2;PMS_P1;PMS_P2;Temp;Humidity;BMP_temperature;BMP_pressure;BME280_temperature;BME280_humidity;BME280_pressure;Samples;Min_cycle;Max_cycle;Signal;HPM_P1;HPM_P2
2022/10/02 00:01:16;;;;;;;5.30;2.20;;;12.90;99.90;;;;;;5095318;28;20701;-47
2022/10/02 00:03:42;;;;;;;4.07;2.20;;;12.90;99.90;;;;;;5094733;28;20428;-44
2022/10/02 00:06:20;;;;;;;7.63;3.03;;;12.90;99.90;;;;;;5095815;28;20419;-48
2022/10/02 00:08:45;;;;;;;4.07;2.43;;;12.90;99.90;;;;;;5094656;28;20517;-45
2022/10/02 00:11:18;;;;;;;5.97;2.27;;;12.90;99.90;;;;;;5093727;28;20799;-47
2022/10/02 00:14:15;;;;;;;3.00;1.73;;;12.90;99.90;;;;;;5095342;28;20450;-45
2022/10/02 00:16:43;;;;;;;6.33;1.70;;;12.90;99.90;;;;;;5093929;28;20528;-46
2022/10/02 00:19:11;;;;;;;5.07;3.47;;;12.90;99.90;;;;;;5094720;28;20812;-44
2022/10/02 00:21:39;;;;;;;3.50;1.97;;;12.90;99.90;;;;;;5095685;28;20411;-49
2022/10/02 00:24:06;;;;;;;4.30;1.77;;;12.90;99.90;;;;;;5098289;28;20464;-46
2022/10/02 00:26:39;;;;;;;3.60;1.80;;;12.90;99.90;;;;;;5098711;28;20442;-44
2022/10/02 00:29:30;;;;;;;2.63;1.40;;;12.90;99.90;;;;;;5097425;28;20423;-47
2022/10/02 00:32:11;;;;;;;3.30;1.57;;;12.90;99.90;;;;;;5097450;28;20408;-48
2022/10/02 00:35:02;;;;;;;4.47;1.90;;;12.90;99.90;;;;;;5096105;28;20852;-45
2022/10/02 00:37:57;;;;;;;4.60;1.73;;;12.90;99.90;;;;;;5096869;28;20458;-45
2022/10/02 00:40:41;;;;;;;2.53;1.60;;;12.90;99.90;;;;;;5097206;28;20972;-44
2022/10/02 00:43:12;;;;;;;5.10;1.70;;;12.90;99.90;;;;;;5094997;28;20737;-45
2022/10/02 00:45:55;;;;;;;4.97;1.57;;;12.90;99.90;;;;;;5094519;28;20499;-47
2022/10/02 00:48:37;;;;;;;3.60;1.57;;;12.90;99.90;;;;;;5096504;28;20445;-49
2022/10/02 00:51:36;;;;;;;2.80;1.60;;;12.90;99.90;;;;;;5096298;28;21003;-44
2022/10/02 00:54:40;;;;;;;4.00;1.57;;;12.90;99.90;;;;;;5090317;28;20441;-47
2022/10/02 00:57:12;;;;;;;3.10;1.47;;;12.90;99.90;;;;;;5094619;28;20470;-44
2022/10/02 00:59:55;;;;;;;5.13;1.60;;;12.90;99.90;;;;;;5095268;28;20463;-46
2022/10/02 01:02:35;;;;;;;3.43;1.67;;;12.90;99.90;;;;;;5084390;28;20415;-45
2022/10/02 01:05:04;;;;;;;2.00;1.20;;;12.90;99.90;;;;;;5094041;28;20436;-44
2022/10/02 01:07:29;;;;;;;7.37;2.50;;;12.90;99.90;;;;;;5092721;28;20750;-46
2022/10/02 01:09:55;;;;;;;3.37;1.80;;;12.90;99.90;;;;;;5093755;28;20428;-46
2022/10/02 01:12:22;;;;;;;3.50;1.43;;;12.90;99.90;;;;;;5094534;28;20418;-45
2022/10/02 01:14:48;;;;;;;3.20;1.70;;;12.90;99.90;;;;;;5094317;28;20483;-44
2022/10/02 01:17:33;;;;;;;3.83;2.00;;;12.90;99.90;;;;;;5094317;28;20759;-45
2022/10/02 01:20:00;;;;;;;3.90;1.63;;;12.90;99.90;;;;;;5093286;28;20178;-46
2022/10/02 01:22:31;;;;;;;2.53;1.30;;;12.90;99.90;;;;;;5092317;28;20494;-46
2022/10/02 01:24:58;;;;;;;4.73;1.97;;;12.90;99.90;;;;;;5092863;28;20530;-45
2022/10/02 01:27:24;;;;;;;4.10;1.60;;;12.90;99.90;;;;;;5092356;28;20541;-44
2022/10/02 01:29:54;;;;;;;8.40;1.70;;;12.90;99.90;;;;;;5076023;28;20840;-45
2022/10/02 01:32:22;;;;;;;3.00;1.30;;;12.90;99.90;;;;;;5094192;28;20436;-43
2022/10/02 01:34:50;;;;;;;3.33;1.70;;;12.90;99.90;;;;;;5093423;28;20182;-46
2022/10/02 01:37:16;;;;;;;3.53;1.70;;;12.90;99.90;;;;;;5093134;28;20462;-46
2022/10/02 01:39:42;;;;;;;3.37;1.63;;;12.90;99.90;;;;;;5095518;28;20480;-45
2022/10/02 01:42:07;;;;;;;3.10;1.70;;;12.90;99.90;;;;;;5094936;28;20252;-47
2022/10/02 01:44:33;;;;;;;4.50;1.60;;;12.90;99.90;;;;;;5093964;28;20531;-45
2022/10/02 01:47:08;;;;;;;3.07;1.70;;;12.90;99.90;;;;;;5092932;28;20234;-45
2022/10/02 01:50:15;;;;;;;1.77;1.30;;;12.90;99.90;;;;;;5093199;28;20173;-45
2022/10/02 01:52:44;;;;;;;5.60;1.43;;;12.90;99.90;;;;;;5096753;28;20433;-44
2022/10/02 01:55:28;;;;;;;4.03;1.40;;;12.90;99.90;;;;;;5095981;28;20481;-46
2022/10/02 01:58:08;;;;;;;3.77;1.50;;;12.90;99.90;;;;;;5097068;28;20469;-45
2022/10/02 02:01:15;;;;;;;3.37;1.97;;;12.90;99.90;;;;;;5098091;28;20574;-47
2022/10/02 02:04:05;;;;;;;4.07;1.93;;;12.90;99.90;;;;;;5096885;28;20809;-44
2022/10/02 02:07:05;;;;;;;3.00;1.60;;;13.00;99.90;;;;;;5097779;28;20841;-46
2022/10/02 02:09:40;;;;;;;4.70;1.80;;;13.00;99.90;;;;;;5095871;28;20436;-46
2022/10/02 02:12:17;;;;;;;3.70;1.77;;;12.90;99.90;;;;;;5097768;28;20411;-44
2022/10/02 02:14:50;;;;;;;4.97;2.07;;;12.90;99.90;;;;;;5097997;28;20438;-45
2022/10/02 02:17:22;;;;;;;2.63;1.60;;;12.90;99.90;;;;;;5097828;28;20563;-46
2022/10/02 02:20:07;;;;;;;3.17;1.57;;;12.90;99.90;;;;;;5095774;28;20457;-44
2022/10/02 02:22:35;;;;;;;8.80;2.90;;;12.90;99.90;;;;;;5096205;28;20413;-45
2022/10/02 02:25:27;;;;;;;4.67;2.10;;;13.00;99.90;;;;;;5095637;28;20750;-45
2022/10/02 02:27:56;;;;;;;6.20;1.93;;;13.00;99.90;;;;;;5096342;28;20797;-45
2022/10/02 02:30:22;;;;;;;3.70;1.87;;;13.00;99.90;;;;;;5096149;28;20593;-45
2022/10/02 02:32:52;;;;;;;4.23;1.93;;;13.00;99.90;;;;;;5095718;28;20509;-44
2022/10/02 02:35:29;;;;;;;6.40;2.43;;;13.00;99.90;;;;;;5096181;28;20424;-45
2022/10/02 02:38:05;;;;;;;5.50;2.27;;;13.00;99.90;;;;;;5094887;28;20499;-48
2022/10/02 02:40:35;;;;;;;5.70;2.13;;;13.00;99.90;;;;;;5096436;28;20430;-47
2022/10/02 02:43:05;;;;;;;6.57;2.20;;;13.00;99.90;;;;;;5096080;28;20422;-44
2022/10/02 02:45:36;;;;;;;3.90;1.90;;;13.00;99.90;;;;;;5079500;28;20820;-45
2022/10/02 02:48:07;;;;;;;4.53;2.17;;;13.00;99.90;;;;;;5096134;28;20434;-45
2022/10/02 02:51:07;;;;;;;6.50;2.10;;;13.00;99.90;;;;;;5096672;28;20501;-45
2022/10/02 02:53:49;;;;;;;5.80;1.80;;;13.00;99.90;;;;;;5095746;28;20424;-44
2022/10/02 02:56:17;;;;;;;6.73;2.37;;;13.00;99.90;;;;;;5094566;28;20510;-44
2022/10/02 02:59:04;;;;;;;4.83;1.70;;;13.00;99.90;;;;;;5095735;28;20412;-44
2022/10/02 03:01:30;;;;;;;4.77;1.97;;;13.00;99.90;;;;;;5094702;28;20420;-45
2022/10/02 03:03:56;;;;;;;8.27;2.30;;;13.00;99.90;;;;;;5098047;28;20415;-45
2022/10/02 03:06:42;;;;;;;7.00;2.10;;;13.00;99.90;;;;;;5098470;28;20178;-44
2022/10/02 03:09:16;;;;;;;5.00;1.90;;;13.00;99.90;;;;;;5078853;28;20182;-44
2022/10/02 03:12:02;;;;;;;4.17;1.80;;;13.00;99.90;;;;;;5095884;28;20426;-47
2022/10/02 03:14:36;;;;;;;3.67;1.80;;;13.00;99.90;;;;;;5096371;28;20473;-45
2022/10/02 03:17:17;;;;;;;7.30;2.37;;;13.00;99.90;;;;;;5095261;28;20469;-46
2022/10/02 03:20:05;;;;;;;5.63;2.50;;;13.00;99.90;;;;;;5096684;28;20671;-47
2022/10/02 03:22:49;;;;;;;4.57;1.80;;;13.00;99.90;;;;;;5096445;28;20418;-45
2022/10/02 03:25:50;;;;;;;4.87;1.83;;;13.00;99.90;;;;;;5081496;28;20428;-45
2022/10/02 03:28:17;;;;;;;4.73;2.10;;;13.00;99.90;;;;;;5097036;28;20673;-47
2022/10/02 03:30:44;;;;;;;4.20;1.90;;;13.00;99.90;;;;;;5096806;28;20423;-45
2022/10/02 03:33:12;;;;;;;8.07;1.93;;;13.00;99.90;;;;;;5097096;28;20438;-45
2022/10/02 03:35:38;;;;;;;4.53;2.13;;;13.00;99.90;;;;;;5096749;28;20761;-46
2022/10/02 03:38:06;;;;;;;4.77;2.10;;;13.00;99.90;;;;;;5096980;28;20570;-46
2022/10/02 03:40:32;;;;;;;3.87;1.67;;;13.00;99.90;;;;;;5096890;28;20164;-46
2022/10/02 03:42:58;;;;;;;2.60;1.77;;;13.00;99.90;;;;;;5096202;28;20886;-44
2022/10/02 03:45:24;;;;;;;3.30;1.50;;;13.00;99.90;;;;;;5097062;28;20273;-45
2022/10/02 03:47:50;;;;;;;3.90;2.07;;;13.00;99.90;;;;;;5097522;28;20892;-44
2022/10/02 03:50:15;;;;;;;7.27;2.07;;;13.00;99.90;;;;;;5096712;28;20510;-44
2022/10/02 03:52:41;;;;;;;5.20;1.63;;;13.00;99.90;;;;;;5097873;28;20508;-45
2022/10/02 03:55:22;;;;;;;4.13;1.87;;;13.00;99.90;;;;;;5097223;28;20486;-45
2022/10/02 03:57:48;;;;;;;5.07;2.37;;;13.00;99.90;;;;;;5097778;28;20464;-46
2022/10/02 04:00:27;;;;;;;4.33;1.60;;;13.00;99.90;;;;;;5095938;28;20698;-45
2022/10/02 04:02:59;;;;;;;2.37;1.30;;;13.00;99.90;;;;;;5096325;28;20230;-43
2022/10/02 04:05:29;;;;;;;2.43;1.67;;;13.00;99.90;;;;;;5096819;28;20965;-45
2022/10/02 04:08:31;;;;;;;4.67;1.87;;;13.00;99.90;;;;;;5096150;28;20505;-45
2022/10/02 04:11:02;;;;;;;3.40;1.63;;;13.00;99.90;;;;;;5096574;28;20412;-44
2022/10/02 04:13:49;;;;;;;5.60;1.97;;;13.00;99.90;;;;;;5096395;28;20443;-46
2022/10/02 04:16:39;;;;;;;4.00;1.90;;;13.00;99.90;;;;;;5097742;28;20493;-45
2022/10/02 04:19:20;;;;;;;6.27;1.73;;;13.00;99.90;;;;;;5096339;28;20747;-44
2022/10/02 04:21:54;;;;;;;4.60;1.83;;;13.00;99.90;;;;;;5095985;28;20403;-45
2022/10/02 04:24:38;;;;;;;5.30;1.77;;;13.00;99.90;;;;;;5095604;28;20493;-44
2022/10/02 04:27:29;;;;;;;4.20;2.23;;;13.00;99.90;;;;;;5096493;28;20447;-44
2022/10/02 04:29:59;;;;;;;5.27;2.47;;;13.00;99.90;;;;;;5097002;28;20519;-45
2022/10/02 04:32:30;;;;;;;5.73;2.20;;;13.00;99.90;;;;;;5095302;28;20403;-46
2022/10/02 04:34:57;;;;;;;2.43;1.70;;;13.00;99.90;;;;;;5095452;28;20512;-46
2022/10/02 04:37:41;;;;;;;3.30;1.73;;;13.00;99.90;;;;;;5095251;28;20491;-45
2022/10/02 04:40:27;;;;;;;4.73;1.87;;;13.00;99.90;;;;;;5094081;28;20436;-47
2022/10/02 04:43:20;;;;;;;4.33;2.37;;;13.00;99.90;;;;;;5096325;28;20403;-44
2022/10/02 04:46:17;;;;;;;3.50;1.83;;;13.00;99.90;;;;;;5095511;28;20702;-45
2022/10/02 04:48:57;;;;;;;3.07;2.30;;;13.00;99.90;;;;;;5096691;28;20413;-47
2022/10/02 04:51:32;;;;;;;4.67;1.70;;;12.90;99.90;;;;;;5096133;28;20422;-45
2022/10/02 04:54:15;;;;;;;4.60;1.93;;;13.00;99.90;;;;;;5096411;28;20411;-46
2022/10/02 04:57:02;;;;;;;6.10;1.90;;;13.00;99.90;;;;;;5096517;28;20571;-46
2022/10/02 05:00:05;;;;;;;3.33;1.80;;;13.00;99.90;;;;;;5096111;28;20418;-46
2022/10/02 05:02:49;;;;;;;6.37;2.10;;;13.00;99.90;;;;;;5095753;28;20425;-43
2022/10/02 05:05:27;;;;;;;4.63;2.20;;;13.00;99.90;;;;;;5096059;28;20408;-49
2022/10/02 05:07:55;;;;;;;6.80;2.30;;;13.00;99.90;;;;;;5094757;28;20460;-47
2022/10/02 05:10:24;;;;;;;3.77;2.47;;;12.90;99.90;;;;;;5095498;28;20407;-44
2022/10/02 05:13:01;;;;;;;5.77;2.40;;;12.90;99.90;;;;;;5094488;28;20837;-45
2022/10/02 05:15:58;;;;;;;4.07;2.17;;;12.90;99.90;;;;;;5095171;28;20415;-46
2022/10/02 05:19:05;;;;;;;5.33;2.30;;;12.80;99.90;;;;;;5092356;28;20442;-43
2022/10/02 05:21:49;;;;;;;3.50;2.07;;;12.80;99.90;;;;;;5074483;28;20420;-45
2022/10/02 05:24:38;;;;;;;4.53;2.30;;;12.80;99.90;;;;;;5092813;28;20444;-44
2022/10/02 05:27:07;;;;;;;7.40;3.00;;;12.80;99.90;;;;;;5100528;28;20518;-44
2022/10/02 05:29:42;;;;;;;2.80;2.20;;;12.70;99.90;;;;;;5100512;28;20677;-43
2022/10/02 05:32:07;;;;;;;7.73;2.70;;;12.70;99.90;;;;;;5098504;28;20414;-44
2022/10/02 05:34:42;;;;;;;5.77;2.50;;;12.70;99.90;;;;;;5098448;28;20403;-46
2022/10/02 05:37:23;;;;;;;3.97;2.30;;;12.70;99.90;;;;;;5098271;28;20362;-46
2022/10/02 05:40:07;;;;;;;5.27;2.47;;;12.70;99.90;;;;;;5099840;28;20502;-45
2022/10/02 05:42:36;;;;;;;5.30;2.43;;;12.70;99.90;;;;;;5097732;28;20758;-43
2022/10/02 05:45:10;;;;;;;4.70;2.33;;;12.70;99.90;;;;;;5099044;28;20411;-44
2022/10/02 05:47:43;;;;;;;6.40;2.13;;;12.70;99.90;;;;;;5096874;28;20823;-46
2022/10/02 05:50:21;;;;;;;3.80;2.20;;;12.70;99.90;;;;;;5098082;28;20467;-44
2022/10/02 05:52:59;;;;;;;6.20;2.77;;;12.70;99.90;;;;;;5096474;28;20713;-44
2022/10/02 05:55:33;;;;;;;6.27;2.00;;;12.80;99.90;;;;;;5095109;28;20500;-45
2022/10/02 05:58:10;;;;;;;4.10;2.27;;;12.80;99.90;;;;;;5095601;28;20566;-46
2022/10/02 06:00:56;;;;;;;5.50;2.00;;;12.80;99.90;;;;;;5096216;28;20718;-49
2022/10/02 06:03:42;;;;;;;5.43;2.00;;;12.80;99.90;;;;;;5079732;28;20496;-46
2022/10/02 06:06:21;;;;;;;2.70;1.83;;;12.80;99.90;;;;;;5097569;28;20487;-44
2022/10/02 06:08:57;;;;;;;7.50;2.17;;;12.80;99.90;;;;;;5098880;28;20410;-43
2022/10/02 06:11:31;;;;;;;6.70;2.50;;;12.80;99.90;;;;;;5098010;28;20403;-44
2022/10/02 06:14:26;;;;;;;4.90;2.20;;;12.90;99.90;;;;;;5097671;28;20713;-43
2022/10/02 06:16:56;;;;;;;9.90;2.17;;;12.90;99.90;;;;;;5098204;28;20462;-45
2022/10/02 06:19:29;;;;;;;5.10;1.90;;;12.90;99.90;;;;;;5097812;28;20427;-44
2022/10/02 06:22:06;;;;;;;4.63;2.10;;;12.90;99.90;;;;;;5096535;28;20410;-44
2022/10/02 06:24:37;;;;;;;5.43;2.40;;;12.90;99.90;;;;;;5096223;28;20430;-46
2022/10/02 06:27:22;;;;;;;4.10;1.80;;;12.90;99.90;;;;;;5095061;28;20688;-44
2022/10/02 06:29:56;;;;;;;7.17;3.03;;;12.90;99.90;;;;;;5095563;28;20873;-46
2022/10/02 06:32:28;;;;;;;3.73;2.03;;;13.00;99.90;;;;;;5096467;28;20511;-45
2022/10/02 06:34:53;;;;;;;3.87;2.03;;;13.00;99.90;;;;;;5097403;28;20807;-45
2022/10/02 06:37:36;;;;;;;4.80;2.00;;;13.00;99.90;;;;;;5096385;28;20526;-45
2022/10/02 06:40:36;;;;;;;5.73;2.13;;;13.10;99.90;;;;;;5095511;28;20188;-46
2022/10/02 06:43:19;;;;;;;6.73;1.77;;;13.10;99.90;;;;;;5094229;28;20844;-45
2022/10/02 06:45:57;;;;;;;7.87;2.47;;;13.20;99.90;;;;;;5096027;28;20611;-44
2022/10/02 06:48:40;;;;;;;3.23;1.83;;;13.20;99.90;;;;;;5096900;28;20411;-46
2022/10/02 06:51:13;;;;;;;4.03;2.10;;;13.30;99.90;;;;;;5097424;28;20688;-45
2022/10/02 06:54:17;;;;;;;6.60;2.13;;;13.40;99.90;;;;;;5096712;28;20491;-46
2022/10/02 06:57:05;;;;;;;6.20;2.30;;;13.60;99.90;;;;;;5097667;28;20490;-44
2022/10/02 06:59:49;;;;;;;3.60;2.20;;;13.80;99.90;;;;;;5097637;28;20427;-46
2022/10/02 07:02:53;;;;;;;3.23;1.57;;;13.90;99.90;;;;;;5097120;28;20410;-45
2022/10/02 07:06:03;;;;;;;8.07;2.30;;;14.00;99.90;;;;;;5096216;28;20445;-47
2022/10/02 07:08:41;;;;;;;4.40;2.10;;;14.10;99.90;;;;;;5055906;28;20432;-46
2022/10/02 07:11:42;;;;;;;4.47;1.70;;;14.10;99.90;;;;;;5090698;28;20408;-43
2022/10/02 07:14:34;;;;;;;4.60;1.80;;;14.10;99.90;;;;;;5094529;28;20434;-45
2022/10/02 07:17:24;;;;;;;3.67;1.87;;;14.20;99.90;;;;;;5097127;28;20470;-44
2022/10/02 07:20:15;;;;;;;3.07;1.93;;;14.20;99.90;;;;;;5095751;28;20689;-49
2022/10/02 07:23:00;;;;;;;5.63;2.20;;;14.30;99.90;;;;;;5096151;28;20507;-45
2022/10/02 07:25:50;;;;;;;4.17;2.13;;;14.30;99.90;;;;;;5097124;28;20715;-45
2022/10/02 07:28:38;;;;;;;5.33;2.60;;;14.40;99.90;;;;;;5096997;28;20426;-46
2022/10/02 07:31:11;;;;;;;3.57;1.67;;;14.40;99.90;;;;;;5094720;28;20419;-46
2022/10/02 07:34:01;;;;;;;3.20;1.87;;;14.40;99.90;;;;;;5093573;28;20422;-45
2022/10/02 07:36:52;;;;;;;5.30;2.03;;;14.40;99.90;;;;;;5092873;28;20571;-45
2022/10/02 07:39:32;;;;;;;4.50;3.00;;;14.40;99.90;;;;;;5094949;28;20467;-44
2022/10/02 07:42:06;;;;;;;5.20;3.30;;;14.50;99.90;;;;;;5093354;28;20426;-45
2022/10/02 07:45:09;;;;;;;4.27;2.67;;;14.60;99.90;;;;;;5094288;28;20744;-44
2022/10/02 07:47:58;;;;;;;7.20;3.00;;;14.70;99.90;;;;;;5093153;28;20477;-48
2022/10/02 07:50:30;;;;;;;4.83;2.83;;;14.80;99.90;;;;;;5081947;28;20551;-45
2022/10/02 07:53:32;;;;;;;4.57;2.57;;;15.00;99.90;;;;;;5092339;28;20443;-47
2022/10/02 07:55:58;;;;;;;5.87;2.93;;;15.10;99.90;;;;;;5091403;28;20454;-46
2022/10/02 07:58:37;;;;;;;5.97;3.60;;;15.30;99.90;;;;;;5093813;28;20470;-47
2022/10/02 08:01:15;;;;;;;5.10;3.67;;;15.50;99.90;;;;;;5092622;28;20935;-46
2022/10/02 08:04:08;;;;;;;7.27;3.93;;;15.80;99.90;;;;;;5093237;28;20696;-46
2022/10/02 08:06:35;;;;;;;7.67;3.63;;;16.30;99.90;;;;;;5093431;28;20493;-45
2022/10/02 08:09:20;;;;;;;4.20;2.47;;;16.80;99.90;;;;;;5094114;28;20536;-46
2022/10/02 08:11:57;;;;;;;6.20;2.70;;;17.00;98.90;;;;;;5095837;28;20431;-45
2022/10/02 08:14:40;;;;;;;4.47;2.80;;;17.10;98.20;;;;;;5092533;28;20498;-46
2022/10/02 08:17:24;;;;;;;4.33;2.13;;;17.30;98.10;;;;;;5095130;28;20464;-44
2022/10/02 08:19:50;;;;;;;4.13;2.23;;;17.50;98.00;;;;;;5095006;28;20484;-48
2022/10/02 08:22:29;;;;;;;6.03;2.33;;;17.70;97.30;;;;;;5095724;28;20465;-45
2022/10/02 08:25:21;;;;;;;4.57;1.90;;;17.90;97.20;;;;;;5094558;28;20691;-43
2022/10/02 08:28:04;;;;;;;3.43;1.80;;;18.60;96.80;;;;;;5092491;28;20869;-44
2022/10/02 08:30:29;;;;;;;5.03;2.20;;;19.10;95.20;;;;;;5091466;28;20872;-43
2022/10/02 08:32:55;;;;;;;4.43;2.60;;;19.20;94.50;;;;;;5092731;28;20727;-44
2022/10/02 08:35:32;;;;;;;6.97;2.50;;;19.10;94.30;;;;;;5093520;28;20192;-46
2022/10/02 08:38:28;;;;;;;4.87;2.10;;;18.90;94.30;;;;;;5091633;28;20535;-49
2022/10/02 08:41:26;;;;;;;2.40;1.53;;;18.80;94.50;;;;;;5092882;28;20417;-46
2022/10/02 08:44:31;;;;;;;3.70;2.13;;;18.80;94.80;;;;;;5093362;28;20465;-46
2022/10/02 08:47:06;;;;;;;4.70;2.13;;;19.00;95.00;;;;;;5093607;28;20479;-44
2022/10/02 08:49:52;;;;;;;2.80;1.90;;;19.30;95.10;;;;;;5094250;28;20441;-45
2022/10/02 08:52:30;;;;;;;2.53;1.70;;;19.90;94.70;;;;;;5092432;28;20814;-47
2022/10/02 08:55:04;;;;;;;2.47;2.00;;;20.70;93.80;;;;;;5094633;28;20421;-44
2022/10/02 08:57:51;;;;;;;7.10;2.47;;;21.50;92.50;;;;;;5094699;28;20478;-45
2022/10/02 09:00:32;;;;;;;5.00;2.80;;;22.00;91.30;;;;;;5093131;28;20412;-45
2022/10/02 09:03:09;;;;;;;5.10;1.73;;;22.60;90.70;;;;;;5094056;28;20718;-45
2022/10/02 09:06:07;;;;;;;3.23;2.13;;;23.30;89.80;;;;;;5094650;28;20697;-44
2022/10/02 09:08:41;;;;;;;3.07;1.50;;;23.80;87.30;;;;;;5094840;28;20452;-44
2022/10/02 09:11:26;;;;;;;6.23;2.17;;;24.00;85.30;;;;;;5095737;28;20394;-43
2022/10/02 09:14:13;;;;;;;5.67;1.40;;;24.10;84.10;;;;;;5094756;28;20522;-43
2022/10/02 09:17:09;;;;;;;2.90;1.33;;;24.50;83.90;;;;;;5094503;28;20606;-44
2022/10/02 09:19:53;;;;;;;3.63;1.37;;;25.40;81.10;;;;;;5092804;28;20730;-44
2022/10/02 09:22:36;;;;;;;2.33;1.53;;;25.90;78.90;;;;;;5094095;28;20429;-44
2022/10/02 09:25:29;;;;;;;2.20;1.57;;;26.30;76.80;;;;;;5092564;28;20504;-43
2022/10/02 09:28:32;;;;;;;2.30;1.10;;;26.40;75.10;;;;;;5091888;28;20433;-44
2022/10/02 09:31:17;;;;;;;1.50;0.80;;;26.10;74.40;;;;;;5091021;28;20814;-44
2022/10/02 09:33:55;;;;;;;1.80;0.70;;;25.70;74.60;;;;;;5089180;28;20932;-44
2022/10/02 09:36:53;;;;;;;1.60;0.90;;;25.60;75.40;;;;;;5089260;28;20417;-45
2022/10/02 09:39:57;;;;;;;1.70;0.70;;;26.30;74.40;;;;;;5089121;28;20458;-45
2022/10/02 09:42:59;;;;;;;1.30;0.50;;;26.60;71.70;;;;;;5089127;28;20479;-46
2022/10/02 09:45:59;;;;;;;1.40;0.63;;;26.50;70.30;;;;;;5088603;28;20589;-46
2022/10/02 09:48:46;;;;;;;1.20;0.50;;;26.30;69.80;;;;;;5081032;28;20546;-45
2022/10/02 09:51:42;;;;;;;1.00;0.60;;;25.70;70.80;;;;;;5089983;28;20556;-47
2022/10/02 09:54:35;;;;;;;1.30;1.00;;;24.90;72.50;;;;;;5092309;28;20440;-44
2022/10/02 09:57:19;;;;;;;1.43;0.70;;;24.20;74.80;;;;;;5090403;28;20783;-45
2022/10/02 10:00:13;;;;;;;0.90;0.40;;;23.60;76.60;;;;;;5089250;28;20541;-48
2022/10/02 10:02:53;;;;;;;1.40;0.50;;;23.10;78.40;;;;;;5089700;28;20409;-45
2022/10/02 10:05:33;;;;;;;1.20;0.50;;;22.70;80.60;;;;;;5090465;28;20427;-46
2022/10/02 10:08:23;;;;;;;1.30;0.60;;;22.40;82.40;;;;;;5088202;28;20427;-45
2022/10/02 10:10:55;;;;;;;1.30;0.60;;;22.40;84.00;;;;;;5090666;28;20676;-44
2022/10/02 10:13:52;;;;;;;1.20;0.50;;;22.30;84.70;;;;;;5092523;28;20425;-48
2022/10/02 10:16:29;;;;;;;1.10;0.60;;;22.20;85.20;;;;;;5091995;28;20449;-45
2022/10/02 10:19:01;;;;;;;0.97;0.63;;;22.10;85.70;;;;;;5092906;28;20503;-47
2022/10/02 10:21:30;;;;;;;1.00;0.60;;;22.20;86.10;;;;;;5096150;28;20586;-46
2022/10/02 10:24:22;;;;;;;1.13;0.53;;;22.30;85.90;;;;;;5094946;28;20583;-45
2022/10/02 10:27:09;;;;;;;1.23;0.70;;;22.50;85.80;;;;;;5094339;28;20450;-45
2022/10/02 10:29:56;;;;;;;1.00;0.50;;;23.90;84.40;;;;;;5094830;28;20734;-46
2022/10/02 10:33:00;;;;;;;1.43;0.63;;;25.40;79.80;;;;;;5094798;28;20429;-44
2022/10/02 10:35:37;;;;;;;1.00;0.40;;;25.70;75.60;;;;;;5095195;28;20674;-48
2022/10/02 10:38:33;;;;;;;1.00;0.50;;;25.30;73.60;;;;;;5095151;28;20476;-44
2022/10/02 10:41:20;;;;;;;1.10;0.47;;;24.80;74.50;;;;;;5094202;28;20663;-45
2022/10/02 10:44:27;;;;;;;1.50;0.57;;;24.30;75.80;;;;;;5094126;28;20795;-47
2022/10/02 10:47:19;;;;;;;1.13;0.50;;;24.00;77.20;;;;;;5095268;28;20451;-46
2022/10/02 10:50:01;;;;;;;0.90;0.40;;;23.90;78.10;;;;;;5097042;28;20816;-44
2022/10/02 10:52:45;;;;;;;0.90;0.37;;;23.70;77.90;;;;;;5094345;28;20404;-44
2022/10/02 10:55:18;;;;;;;0.87;0.30;;;23.60;77.70;;;;;;5095009;28;20511;-44
2022/10/02 10:58:05;;;;;;;1.13;0.50;;;23.50;77.90;;;;;;5094509;28;20531;-47
2022/10/02 11:00:58;;;;;;;1.20;0.50;;;23.40;78.50;;;;;;5094324;28;20414;-46
2022/10/02 11:03:57;;;;;;;0.90;0.40;;;23.20;78.30;;;;;;5096617;28;20422;-47
2022/10/02 11:06:32;;;;;;;0.80;0.30;;;23.10;78.50;;;;;;5094292;28;20405;-48
2022/10/02 11:08:57;;;;;;;1.20;0.63;;;23.40;78.60;;;;;;5094660;28;20417;-43
2022/10/02 11:11:32;;;;;;;1.93;1.20;;;23.50;79.30;;;;;;5094029;28;20413;-44
2022/10/02 11:14:06;;;;;;;2.97;1.30;;;23.60;79.70;;;;;;5095456;28;20268;-46
2022/10/02 11:16:58;;;;;;;3.33;1.53;;;23.50;80.50;;;;;;5095397;28;20889;-48
2022/10/02 11:19:52;;;;;;;7.50;2.10;;;23.40;81.20;;;;;;5092056;28;20435;-47
2022/10/02 11:22:42;;;;;;;2.13;1.10;;;23.20;82.20;;;;;;5094840;28;20438;-47
2022/10/02 11:25:24;;;;;;;2.00;1.17;;;22.80;81.00;;;;;;5097683;28;20640;-49
2022/10/02 11:28:12;;;;;;;1.57;0.90;;;22.40;81.90;;;;;;5096030;28;20727;-47
2022/10/02 11:31:15;;;;;;;2.47;0.90;;;22.10;82.50;;;;;;5094953;28;20557;-44
2022/10/02 11:34:17;;;;;;;2.30;1.00;;;21.80;83.00;;;;;;5093239;28;20427;-46
2022/10/02 11:36:48;;;;;;;1.57;1.10;;;21.60;84.50;;;;;;5094918;28;20472;-44
2022/10/02 11:39:32;;;;;;;2.20;0.80;;;21.50;85.50;;;;;;5094054;28;20513;-44
2022/10/02 11:42:15;;;;;;;3.50;0.90;;;21.20;86.60;;;;;;5094249;28;20421;-43
2022/10/02 11:45:13;;;;;;;2.90;0.90;;;21.20;87.50;;;;;;5094873;28;20605;-45
2022/10/02 11:47:48;;;;;;;1.50;0.80;;;21.10;88.00;;;;;;5092620;28;20430;-46
2022/10/02 11:50:42;;;;;;;2.00;0.80;;;21.00;88.50;;;;;;5093288;28;20448;-47
2022/10/02 11:53:21;;;;;;;2.53;1.00;;;20.80;88.60;;;;;;5092768;28;20925;-45
2022/10/02 11:56:34;;;;;;;3.20;1.20;;;20.60;90.70;;;;;;5094410;28;20495;-47
2022/10/02 11:59:27;;;;;;;3.00;1.30;;;20.30;92.60;;;;;;5094557;28;20432;-46
2022/10/02 12:02:09;;;;;;;1.60;0.90;;;20.30;93.10;;;;;;5092666;28;20420;-45
2022/10/02 12:04:47;;;;;;;3.47;1.40;;;20.20;94.10;;;;;;5093577;28;20496;-47
2022/10/02 12:07:28;;;;;;;4.70;1.30;;;20.30;94.00;;;;;;5093163;28;20490;-47
2022/10/02 12:10:02;;;;;;;1.50;1.20;;;20.30;94.10;;;;;;5093670;28;20406;-51
2022/10/02 12:12:42;;;;;;;2.13;1.10;;;20.30;94.00;;;;;;5093443;28;20426;-47
2022/10/02 12:15:43;;;;;;;1.60;0.90;;;20.20;93.70;;;;;;5083598;28;20479;-47
2022/10/02 12:18:27;;;;;;;1.47;0.90;;;20.20;93.40;;;;;;5082289;28;20469;-48
2022/10/02 12:26:58;;;;;;;1.30;0.70;;;19.90;93.20;;;;;;5077562;28;20433;-49
2022/10/02 12:29:48;;;;;;;2.50;0.80;;;19.80;93.10;;;;;;5073128;28;20451;-48
2022/10/02 12:32:25;;;;;;;3.23;1.13;;;19.70;93.30;;;;;;5072899;28;20457;-54
2022/10/02 12:35:03;;;;;;;2.20;1.10;;;19.70;93.70;;;;;;5072601;28;20437;-44
2022/10/02 12:37:36;;;;;;;1.73;1.10;;;19.70;93.20;;;;;;5075050;28;20564;-44
2022/10/02 12:40:23;;;;;;;1.17;0.70;;;19.50;92.90;;;;;;5075487;28;20414;-45
2022/10/02 12:43:33;;;;;;;4.00;1.03;;;19.30;92.80;;;;;;5073682;28;20492;-45
2022/10/02 12:46:21;;;;;;;1.17;0.60;;;19.20;93.00;;;;;;5057248;28;20414;-47
2022/10/02 12:49:23;;;;;;;1.20;0.63;;;19.10;93.20;;;;;;5047222;28;20414;-47
2022/10/02 12:52:04;;;;;;;1.10;0.70;;;19.00;93.40;;;;;;5070847;28;20462;-44
2022/10/02 12:54:47;;;;;;;1.97;0.83;;;18.90;93.50;;;;;;5089092;28;20454;-46
2022/10/02 12:57:53;;;;;;;1.88;0.70;;;18.80;93.60;;;;;;5093660;28;20443;-44
2022/10/02 13:00:24;;;;;;;1.50;0.60;;;18.70;93.90;;;;;;5095482;28;20273;-44
2022/10/02 13:03:20;;;;;;;1.10;0.70;;;18.70;93.80;;;;;;5076003;28;20829;-47
2022/10/02 13:06:09;;;;;;;1.20;0.80;;;18.60;93.90;;;;;;5084601;28;20424;-45
2022/10/02 13:08:45;;;;;;;1.50;0.60;;;18.40;94.00;;;;;;5093521;28;20797;-44
2022/10/02 13:11:32;;;;;;;1.10;0.70;;;18.30;94.30;;;;;;5092259;28;20732;-43
2022/10/02 13:14:16;;;;;;;1.30;0.87;;;18.20;94.60;;;;;;5093245;28;20424;-46
2022/10/02 13:16:47;;;;;;;1.57;0.90;;;18.10;95.00;;;;;;5093173;28;20482;-46
2022/10/02 13:19:29;;;;;;;1.50;0.77;;;18.00;95.20;;;;;;5092825;28;20846;-47
2022/10/02 13:22:19;;;;;;;1.30;0.60;;;18.00;95.30;;;;;;5093733;28;20654;-49
2022/10/02 13:24:49;;;;;;;1.70;0.50;;;18.10;95.40;;;;;;5093991;28;20413;-45
2022/10/02 13:27:33;;;;;;;1.20;0.80;;;18.20;95.50;;;;;;5091419;28;20433;-47
2022/10/02 13:30:18;;;;;;;3.33;1.00;;;18.30;95.40;;;;;;5093527;28;20416;-43
2022/10/02 13:32:43;;;;;;;3.47;0.90;;;18.50;95.10;;;;;;5092051;28;20422;-44
2022/10/02 13:35:47;;;;;;;2.33;0.97;;;18.90;95.00;;;;;;5092695;28;20476;-46
2022/10/02 13:38:18;;;;;;;2.77;1.20;;;19.40;94.30;;;;;;5051033;28;20229;-43
2022/10/02 13:41:23;;;;;;;2.23;0.93;;;19.60;93.80;;;;;;5086403;28;20695;-44
2022/10/02 13:44:15;;;;;;;3.00;0.60;;;19.80;93.30;;;;;;5093315;28;20429;-43
2022/10/02 13:46:59;;;;;;;0.93;0.50;;;20.10;92.90;;;;;;5093691;28;20556;-44
2022/10/02 13:49:52;;;;;;;1.07;0.50;;;20.10;92.50;;;;;;5094991;28;20425;-43
2022/10/02 13:52:37;;;;;;;1.10;0.60;;;20.10;92.40;;;;;;5094370;28;20457;-46
2022/10/02 13:55:11;;;;;;;1.20;0.50;;;20.10;92.50;;;;;;5096902;28;20474;-43
2022/10/02 13:57:44;;;;;;;2.03;0.57;;;20.30;92.40;;;;;;5096750;28;20526;-43
2022/10/02 14:00:23;;;;;;;1.50;0.80;;;20.40;92.00;;;;;;5094325;28;20444;-47
2022/10/02 14:03:32;;;;;;;0.90;0.50;;;20.30;91.90;;;;;;5095334;28;20448;-43
2022/10/02 14:06:19;;;;;;;1.87;0.70;;;20.10;91.90;;;;;;5076563;28;20720;-46
2022/10/02 14:09:13;;;;;;;1.48;0.60;;;19.80;92.00;;;;;;5097869;28;20404;-44